createdAt,value
2023-05-10T00:02:01.657Z,15.38
2023-05-10T00:04:32.316Z,15.33
2023-05-10T00:07:02.986Z,15.27
2023-05-10T00:09:33.327Z,15.22
2023-05-10T00:12:03.582Z,15.17
2023-05-10T00:14:34.264Z,15.15
2023-05-10T00:17:04.477Z,15.14
2023-05-10T00:19:34.748Z,15.12
2023-05-10T00:22:05.089Z,15.13
2023-05-10T00:24:35.361Z,15.15
2023-05-10T00:27:06.212Z,15.17
2023-05-10T00:29:36.572Z,15.16
2023-05-10T00:32:10.723Z,15.14
2023-05-10T00:34:41.322Z,15.09
2023-05-10T00:37:11.680Z,15.07
2023-05-10T00:39:42.289Z,15.06
2023-05-10T00:42:12.897Z,15.07
2023-05-10T00:44:43.127Z,15.08
2023-05-10T00:47:13.605Z,15.10
2023-05-10T00:49:44.253Z,15.12
2023-05-10T00:52:14.527Z,15.14
2023-05-10T00:54:45.008Z,15.16
2023-05-10T00:57:15.623Z,15.15
2023-05-10T00:59:46.338Z,15.14
2023-05-10T01:02:17.397Z,15.11
2023-05-10T01:04:48.436Z,15.08
2023-05-10T01:07:18.976Z,15.07
2023-05-10T01:09:49.638Z,15.06
2023-05-10T01:12:20.276Z,15.04
2023-05-10T01:14:50.886Z,15.02
2023-05-10T01:17:21.879Z,15.00
2023-05-10T01:19:52.285Z,14.93
2023-05-10T01:22:45.367Z,14.88
2023-05-10T01:25:28.467Z,14.85
2023-05-10T01:28:16.276Z,14.84
2023-05-10T01:31:13.326Z,14.87
2023-05-10T01:33:49.941Z,14.91
2023-05-10T01:36:27.869Z,14.94
2023-05-10T01:39:04.595Z,14.98
2023-05-10T01:41:37.590Z,15.02
2023-05-10T01:44:14.638Z,15.04
2023-05-10T01:46:43.841Z,15.06
2023-05-10T01:49:20.769Z,15.06
2023-05-10T01:51:55.828Z,15.07
2023-05-10T01:54:27.390Z,15.09
2023-05-10T01:57:04.220Z,15.11
2023-05-10T01:59:37.295Z,15.12
2023-05-10T02:02:08.777Z,15.13
2023-05-10T02:04:40.482Z,15.14
2023-05-10T02:07:12.412Z,15.15
2023-05-10T02:09:43.801Z,15.16
2023-05-10T02:12:16.217Z,15.18
2023-05-10T02:14:48.473Z,15.21
2023-05-10T02:17:20.729Z,15.22
2023-05-10T02:19:51.226Z,15.20
2023-05-10T02:22:22.297Z,15.20
2023-05-10T02:24:53.184Z,15.22
2023-05-10T02:27:24.004Z,15.26
2023-05-10T02:29:55.133Z,15.30
2023-05-10T02:32:26.925Z,15.36
2023-05-10T02:34:57.621Z,15.42
2023-05-10T02:37:28.571Z,15.53
2023-05-10T02:39:59.705Z,15.72
2023-05-10T02:42:30.756Z,16.06
2023-05-10T02:45:04.460Z,16.73
2023-05-10T02:47:35.028Z,17.58
2023-05-10T02:50:06.272Z,18.45
2023-05-10T02:52:42.173Z,19.34
2023-05-10T02:55:15.803Z,20.23
2023-05-10T02:57:49.789Z,21.07
2023-05-10T03:00:20.627Z,21.91
2023-05-10T03:02:51.406Z,22.69
2023-05-10T03:05:23.033Z,23.45
2023-05-10T03:07:53.666Z,24.17
2023-05-10T03:10:26.418Z,24.82
2023-05-10T03:13:08.827Z,25.44
2023-05-10T03:15:49.899Z,25.96
2023-05-10T03:18:23.428Z,26.42
2023-05-10T03:20:58.508Z,26.69
2023-05-10T03:23:32.551Z,27.08
2023-05-10T03:26:03.317Z,27.73
2023-05-10T03:28:34.830Z,28.32
2023-05-10T03:31:05.532Z,28.94
2023-05-10T03:33:36.178Z,29.36
2023-05-10T03:36:08.366Z,29.89
2023-05-10T03:38:38.906Z,30.48
2023-05-10T03:41:09.181Z,31.19
2023-05-10T03:43:39.589Z,31.72
2023-05-10T03:46:10.332Z,32.09
2023-05-10T03:48:40.553Z,31.99
2023-05-10T03:51:10.999Z,32.30
2023-05-10T03:53:41.652Z,32.91
2023-05-10T03:56:14.381Z,33.45
2023-05-10T03:58:44.794Z,34.08
2023-05-10T04:01:16.716Z,34.74
2023-05-10T04:03:47.728Z,35.36
2023-05-10T04:06:18.206Z,35.81
2023-05-10T04:08:48.936Z,36.16
2023-05-10T04:11:19.077Z,36.38
2023-05-10T04:13:49.511Z,37.03
2023-05-10T04:16:19.996Z,37.69
2023-05-10T04:18:50.324Z,37.81
2023-05-10T04:21:20.505Z,38.01
2023-05-10T04:23:50.753Z,38.90
2023-05-10T04:26:21.115Z,39.67
2023-05-10T04:28:52.049Z,40.29
2023-05-10T04:31:22.463Z,40.57
2023-05-10T04:33:53.075Z,40.43
2023-05-10T04:36:23.352Z,39.54
2023-05-10T04:38:54.051Z,38.49
2023-05-10T04:41:24.964Z,37.86
2023-05-10T04:43:55.221Z,37.12
2023-05-10T04:46:25.683Z,37.30
2023-05-10T04:48:56.015Z,38.17
2023-05-10T04:51:26.638Z,38.74
2023-05-10T04:54:06.214Z,39.35
2023-05-10T04:56:37.723Z,38.61
2023-05-10T04:59:07.914Z,37.72
2023-05-10T05:01:38.407Z,37.49
2023-05-10T05:04:08.896Z,38.21
2023-05-10T05:06:39.176Z,38.87
2023-05-10T05:09:10.902Z,38.93
2023-05-10T05:11:41.370Z,39.48
2023-05-10T05:14:12.434Z,39.95
2023-05-10T05:16:43.243Z,40.35
2023-05-10T05:19:13.948Z,40.80
2023-05-10T05:21:44.252Z,41.41
2023-05-10T05:24:14.656Z,41.61
2023-05-10T05:26:45.592Z,41.42
2023-05-10T05:29:17.267Z,41.32
2023-05-10T05:31:49.966Z,40.97
2023-05-10T05:34:22.208Z,40.74
2023-05-10T05:36:52.447Z,41.36
2023-05-10T05:39:23.474Z,41.74
2023-05-10T05:41:54.060Z,41.00
2023-05-10T05:44:24.474Z,40.03
2023-05-10T05:46:58.722Z,39.25
2023-05-10T05:49:32.184Z,38.62
2023-05-10T05:52:03.054Z,38.68
2023-05-10T05:54:33.784Z,39.93
2023-05-10T05:57:04.136Z,41.35
2023-05-10T05:59:34.496Z,42.26
2023-05-10T06:02:05.244Z,42.71
2023-05-10T06:04:35.922Z,42.39
2023-05-10T06:07:06.637Z,42.83
2023-05-10T06:09:37.249Z,43.92
2023-05-10T06:12:07.937Z,45.27
2023-05-10T06:14:38.173Z,46.39
2023-05-10T06:17:09.059Z,46.05
2023-05-10T06:19:39.771Z,44.88
2023-05-10T06:22:10.313Z,44.46
2023-05-10T06:24:40.693Z,44.11
2023-05-10T06:27:11.008Z,44.10
2023-05-10T06:29:41.110Z,43.33
2023-05-10T06:32:11.310Z,43.50
2023-05-10T06:34:41.722Z,44.21
2023-05-10T06:37:12.071Z,44.82
2023-05-10T06:39:42.345Z,44.52
2023-05-10T06:42:12.781Z,43.88
2023-05-10T06:44:44.242Z,43.40
2023-05-10T06:47:14.498Z,43.85
2023-05-10T06:49:44.983Z,44.46
2023-05-10T06:52:15.400Z,44.64
2023-05-10T06:54:45.845Z,44.80
2023-05-10T06:57:27.718Z,44.85
2023-05-10T07:00:01.761Z,45.09
2023-05-10T07:02:32.689Z,45.63
2023-05-10T07:05:06.119Z,45.96
2023-05-10T07:07:39.197Z,45.31
2023-05-10T07:10:11.980Z,43.22
2023-05-10T07:12:42.569Z,41.27
2023-05-10T07:15:13.727Z,39.54
2023-05-10T07:17:45.902Z,38.05
2023-05-10T07:20:16.874Z,36.90
2023-05-10T07:22:47.211Z,36.08
2023-05-10T07:25:17.827Z,35.33
2023-05-10T07:27:49.188Z,34.61
2023-05-10T07:30:19.903Z,33.95
2023-05-10T07:32:50.217Z,33.48
2023-05-10T07:35:20.972Z,32.94
2023-05-10T07:37:51.133Z,32.55
2023-05-10T07:40:22.040Z,32.21
2023-05-10T07:42:52.612Z,31.47
2023-05-10T07:45:24.000Z,30.71
2023-05-10T07:47:54.834Z,30.28
2023-05-10T07:50:25.339Z,30.20
2023-05-10T07:52:56.170Z,30.17
2023-05-10T07:55:26.914Z,29.98
2023-05-10T07:57:57.146Z,29.72
2023-05-10T08:00:27.309Z,29.53
2023-05-10T08:02:57.611Z,29.43
2023-05-10T08:05:28.269Z,29.40
2023-05-10T08:08:00.185Z,29.43
2023-05-10T08:10:30.743Z,29.50
2023-05-10T08:13:01.382Z,29.45
2023-05-10T08:15:31.531Z,29.43
2023-05-10T08:18:01.996Z,29.36
2023-05-10T08:20:32.838Z,29.23
2023-05-10T08:23:03.216Z,29.03
2023-05-10T08:25:33.878Z,28.84
2023-05-10T08:28:04.753Z,28.70
2023-05-10T08:30:35.023Z,28.66
2023-05-10T08:33:05.904Z,28.64
2023-05-10T08:35:36.459Z,28.52
2023-05-10T08:38:06.665Z,28.42
2023-05-10T08:40:37.725Z,28.21
2023-05-10T08:43:10.575Z,28.00
2023-05-10T08:45:42.712Z,27.83
2023-05-10T08:48:13.486Z,27.66
2023-05-10T08:50:44.228Z,27.60
2023-05-10T08:53:15.299Z,27.51
2023-05-10T08:55:45.742Z,27.37
2023-05-10T08:58:16.368Z,27.30
2023-05-10T09:00:46.892Z,27.25
2023-05-10T09:03:17.148Z,27.02
2023-05-10T09:05:47.522Z,26.90
2023-05-10T09:08:18.111Z,26.84
2023-05-10T09:10:48.620Z,26.78
2023-05-10T09:13:19.943Z,26.77
2023-05-10T09:15:51.195Z,26.79
2023-05-10T09:18:21.698Z,26.72
2023-05-10T09:20:52.030Z,26.68
2023-05-10T09:23:23.004Z,26.67
2023-05-10T09:26:06.901Z,26.68
2023-05-10T09:28:51.337Z,26.70
2023-05-10T09:31:21.816Z,26.76
2023-05-10T09:33:53.169Z,26.79
2023-05-10T09:36:23.487Z,26.71
2023-05-10T09:38:56.925Z,26.68
2023-05-10T09:41:27.448Z,26.67
2023-05-10T09:43:59.118Z,26.69
2023-05-10T09:46:29.416Z,26.68
2023-05-10T09:48:59.783Z,26.67
2023-05-10T09:51:30.323Z,26.67
2023-05-10T09:54:13.265Z,26.74
2023-05-10T09:56:43.913Z,26.80
2023-05-10T09:59:14.643Z,26.80
2023-05-10T10:01:46.325Z,26.74
2023-05-10T10:04:17.244Z,26.73
2023-05-10T10:06:48.159Z,26.70
2023-05-10T10:09:19.382Z,26.67
2023-05-10T10:11:49.589Z,26.69
2023-05-10T10:14:22.057Z,26.70
2023-05-10T10:17:06.644Z,26.71
2023-05-10T10:19:40.826Z,26.68
2023-05-10T10:22:12.629Z,26.70
2023-05-10T10:24:43.674Z,26.77
2023-05-10T10:27:21.622Z,26.77
2023-05-10T10:30:02.230Z,26.73
2023-05-10T10:32:49.899Z,26.79
2023-05-10T10:35:20.469Z,26.91
2023-05-10T10:37:52.821Z,27.08
2023-05-10T10:40:31.889Z,27.20
2023-05-10T10:43:25.596Z,27.12
2023-05-10T10:46:15.913Z,26.92
2023-05-10T10:48:52.402Z,26.83
2023-05-10T10:51:22.746Z,26.92
2023-05-10T10:53:52.970Z,27.15
2023-05-10T10:56:25.021Z,27.36
2023-05-10T10:58:57.951Z,27.51
2023-05-10T11:01:35.909Z,27.68
2023-05-10T11:04:21.666Z,27.83
2023-05-10T11:06:52.080Z,28.03
2023-05-10T11:09:27.487Z,28.18
2023-05-10T11:11:59.133Z,28.35
2023-05-10T11:14:29.322Z,28.30
2023-05-10T11:16:59.514Z,28.18
2023-05-10T11:19:31.282Z,28.03
2023-05-10T11:22:15.800Z,27.87
2023-05-10T11:24:59.673Z,27.81
2023-05-10T11:27:29.951Z,27.80
2023-05-10T11:30:00.313Z,27.90
2023-05-10T11:32:30.795Z,28.02
2023-05-10T11:35:01.103Z,28.06
2023-05-10T11:37:35.172Z,28.01
2023-05-10T11:40:06.650Z,27.76
2023-05-10T11:42:36.960Z,27.53
2023-05-10T11:45:09.810Z,27.34
2023-05-10T11:47:42.637Z,27.20
2023-05-10T11:50:15.429Z,27.14
2023-05-10T11:52:46.493Z,27.19
2023-05-10T11:55:16.719Z,27.27
2023-05-10T11:57:47.367Z,27.45
2023-05-10T12:00:18.503Z,27.61
2023-05-10T12:02:51.668Z,27.74
2023-05-10T12:05:23.245Z,27.94
2023-05-10T12:07:53.489Z,28.11
2023-05-10T12:10:28.752Z,28.21
2023-05-10T12:12:59.458Z,28.16
2023-05-10T12:15:30.929Z,28.17
2023-05-10T12:18:02.038Z,28.23
2023-05-10T12:20:32.645Z,28.34
2023-05-10T12:23:04.620Z,28.38
2023-05-10T12:25:36.647Z,28.26
2023-05-10T12:28:09.229Z,28.07
2023-05-10T12:30:39.882Z,27.91
2023-05-10T12:33:15.407Z,27.79
2023-05-10T12:35:50.166Z,27.73
2023-05-10T12:38:31.939Z,27.54
2023-05-10T12:41:04.382Z,27.41
2023-05-10T12:43:35.047Z,27.29
2023-05-10T12:46:10.240Z,27.18
2023-05-10T12:48:41.803Z,27.05
2023-05-10T12:51:14.041Z,26.92
2023-05-10T12:53:48.734Z,26.80
2023-05-10T12:56:19.798Z,26.67
2023-05-10T12:58:49.963Z,26.64
2023-05-10T13:01:20.362Z,26.75
2023-05-10T13:03:51.316Z,26.72
2023-05-10T13:06:21.501Z,26.65
2023-05-10T13:08:52.486Z,26.47
2023-05-10T13:11:23.071Z,26.32
2023-05-10T13:13:53.336Z,26.21
2023-05-10T13:16:24.293Z,26.15
2023-05-10T13:18:55.683Z,26.19
2023-05-10T13:21:27.791Z,26.18
2023-05-10T13:23:59.507Z,26.18
2023-05-10T13:26:31.238Z,26.19
2023-05-10T13:29:01.718Z,26.19
2023-05-10T13:31:32.038Z,26.19
2023-05-10T13:34:02.413Z,26.20
2023-05-10T13:36:34.356Z,26.26
2023-05-10T13:39:05.992Z,26.28
2023-05-10T13:41:42.526Z,26.42
2023-05-10T13:44:15.896Z,26.51
2023-05-10T13:46:52.634Z,26.65
2023-05-10T13:49:30.553Z,26.78
2023-05-10T13:52:37.212Z,26.87
2023-05-10T13:55:08.724Z,26.93
2023-05-10T13:57:51.818Z,26.97
2023-05-10T14:00:32.876Z,26.89
2023-05-10T14:03:17.123Z,26.81
2023-05-10T14:05:52.301Z,26.69
2023-05-10T14:08:23.248Z,26.55
2023-05-10T14:11:08.200Z,26.40
2023-05-10T14:13:42.481Z,26.27
2023-05-10T14:16:25.412Z,26.11
2023-05-10T14:18:56.948Z,25.95
2023-05-10T14:21:28.724Z,25.83
2023-05-10T14:23:58.926Z,25.76
2023-05-10T14:26:29.643Z,25.71
2023-05-10T14:29:00.121Z,25.64
2023-05-10T14:31:31.799Z,25.51
2023-05-10T14:34:02.417Z,25.39
2023-05-10T14:36:33.015Z,25.28
2023-05-10T14:39:03.993Z,25.18
2023-05-10T14:41:36.638Z,25.08
2023-05-10T14:44:07.325Z,24.97
2023-05-10T14:46:37.502Z,24.86
2023-05-10T14:49:08.757Z,24.74
2023-05-10T14:51:39.073Z,24.63
2023-05-10T14:56:56.841Z,24.45
2023-05-10T14:59:30.194Z,24.39
2023-05-10T15:02:01.247Z,24.30
2023-05-10T15:05:03.346Z,24.20
2023-05-10T15:07:34.768Z,24.07
2023-05-10T15:10:06.715Z,23.97
2023-05-10T15:12:37.029Z,23.89
2023-05-10T15:15:10.682Z,23.83
2023-05-10T15:17:42.478Z,23.80
2023-05-10T15:20:17.759Z,23.76
2023-05-10T15:22:54.399Z,23.68
2023-05-10T15:25:38.749Z,23.63
2023-05-10T15:28:13.501Z,23.57
2023-05-10T15:30:45.882Z,23.51
2023-05-10T15:33:18.186Z,23.45
2023-05-10T15:35:48.955Z,23.42
2023-05-10T15:38:19.598Z,23.36
2023-05-10T15:40:50.205Z,23.31
2023-05-10T15:43:21.879Z,23.27
2023-05-10T15:45:52.393Z,23.24
2023-05-10T15:48:23.836Z,23.23
2023-05-10T15:50:54.143Z,23.21
2023-05-10T15:53:28.288Z,23.20
2023-05-10T15:56:00.383Z,23.16
2023-05-10T15:58:33.854Z,23.08
2023-05-10T16:01:08.959Z,22.89
2023-05-10T16:03:40.008Z,22.67
2023-05-10T16:06:11.114Z,22.48
2023-05-10T16:08:46.367Z,22.31
2023-05-10T16:11:16.737Z,22.12
2023-05-10T16:13:49.678Z,21.99
2023-05-10T16:16:20.030Z,21.86
2023-05-10T16:18:51.305Z,21.75
2023-05-10T16:21:24.318Z,21.65
2023-05-10T16:23:54.845Z,21.56
2023-05-10T16:26:25.392Z,21.48
2023-05-10T16:28:55.870Z,21.39
2023-05-10T16:31:26.217Z,21.29
2023-05-10T16:33:56.989Z,21.18
2023-05-10T16:36:27.533Z,21.04
2023-05-10T16:38:58.221Z,20.82
2023-05-10T16:41:29.007Z,20.54
2023-05-10T16:43:59.271Z,20.25
2023-05-10T16:46:29.680Z,20.04
2023-05-10T16:49:00.585Z,19.88
2023-05-10T16:51:31.371Z,19.78
2023-05-10T16:54:02.441Z,19.74
2023-05-10T16:56:33.281Z,19.71
2023-05-10T16:59:05.791Z,19.71
2023-05-10T17:01:37.449Z,19.64
2023-05-10T17:04:07.772Z,19.53
2023-05-10T17:06:38.380Z,19.43
2023-05-10T17:09:09.020Z,19.32
2023-05-10T17:11:39.494Z,19.20
2023-05-10T17:14:10.298Z,19.15
2023-05-10T17:16:40.693Z,19.08
2023-05-10T17:19:11.270Z,19.01
2023-05-10T17:21:41.854Z,18.96
2023-05-10T17:24:12.703Z,18.90
2023-05-10T17:26:42.946Z,18.85
2023-05-10T17:29:13.823Z,18.75
2023-05-10T17:31:44.427Z,18.55
2023-05-10T17:34:16.055Z,18.37
2023-05-10T17:36:46.587Z,18.22
2023-05-10T17:39:16.745Z,18.14
2023-05-10T17:41:47.028Z,18.11
2023-05-10T17:44:17.283Z,18.03
2023-05-10T17:46:48.044Z,17.97
2023-05-10T17:49:18.408Z,17.88
2023-05-10T17:51:48.693Z,17.80
2023-05-10T17:54:18.766Z,17.76
2023-05-10T17:56:49.486Z,17.80
2023-05-10T17:59:20.118Z,17.82
2023-05-10T18:01:50.374Z,17.82
2023-05-10T18:04:20.946Z,17.80
2023-05-10T18:06:51.368Z,17.76
2023-05-10T18:09:24.143Z,17.72
2023-05-10T18:11:54.810Z,17.70
2023-05-10T18:14:36.536Z,17.63
2023-05-10T18:17:10.262Z,17.57
2023-05-10T18:19:41.134Z,17.49
2023-05-10T18:22:12.491Z,17.42
2023-05-10T18:24:46.685Z,17.35
2023-05-10T18:27:17.597Z,17.26
2023-05-10T18:29:48.237Z,17.15
2023-05-10T18:32:18.692Z,17.07
2023-05-10T18:34:49.088Z,16.98
2023-05-10T18:37:20.001Z,16.94
2023-05-10T18:39:50.433Z,16.89
2023-05-10T18:42:27.488Z,16.81
2023-05-10T18:44:58.698Z,16.70
2023-05-10T18:47:31.101Z,16.61
2023-05-10T18:50:06.042Z,16.55
2023-05-10T18:52:37.566Z,16.47
2023-05-10T18:55:10.133Z,16.39
2023-05-10T18:57:41.777Z,16.33
2023-05-10T19:00:14.360Z,16.30
2023-05-10T19:02:46.424Z,16.27
2023-05-10T19:05:20.023Z,16.26
2023-05-10T19:07:57.111Z,16.23
2023-05-10T19:10:32.502Z,16.19
2023-05-10T19:13:03.836Z,16.15
2023-05-10T19:15:34.519Z,16.11
2023-05-10T19:18:07.974Z,16.10
2023-05-10T19:20:40.859Z,16.11
2023-05-10T19:23:17.266Z,16.15
2023-05-10T19:25:47.888Z,16.20
2023-05-10T19:28:30.432Z,16.21
2023-05-10T19:31:10.939Z,16.19
2023-05-10T19:33:41.701Z,16.21
2023-05-10T19:36:15.485Z,16.24
2023-05-10T19:38:53.710Z,16.27
2023-05-10T19:41:28.195Z,16.28
2023-05-10T19:44:01.390Z,16.28
2023-05-10T19:46:34.722Z,16.29
2023-05-10T19:49:07.668Z,16.31
2023-05-10T19:51:43.542Z,16.35
2023-05-10T19:54:25.422Z,16.40
2023-05-10T19:57:01.575Z,16.44
2023-05-10T19:59:37.355Z,16.47
2023-05-10T20:02:10.668Z,16.52
2023-05-10T20:04:44.579Z,16.54
2023-05-10T20:07:25.488Z,16.55
2023-05-10T20:10:00.117Z,16.57
2023-05-10T20:12:49.632Z,16.61
2023-05-10T20:15:22.741Z,16.64
2023-05-10T20:17:56.170Z,16.67
2023-05-10T20:20:27.689Z,16.68
2023-05-10T20:22:58.346Z,16.64
2023-05-10T20:25:31.226Z,16.57
2023-05-10T20:28:05.494Z,16.49
2023-05-10T20:30:36.429Z,16.39
2023-05-10T20:33:06.805Z,16.31
2023-05-10T20:35:37.122Z,16.27
2023-05-10T20:38:08.702Z,16.26
2023-05-10T20:40:39.703Z,16.24
2023-05-10T20:43:10.145Z,16.19
2023-05-10T20:45:40.621Z,16.14
2023-05-10T20:48:10.969Z,16.11
2023-05-10T20:50:44.383Z,16.08
2023-05-10T20:53:21.141Z,16.06
2023-05-10T20:55:51.737Z,16.04
2023-05-10T20:58:22.300Z,15.99
2023-05-10T21:00:52.696Z,15.93
2023-05-10T21:03:22.914Z,15.88
2023-05-10T21:05:53.626Z,15.85
2023-05-10T21:08:24.012Z,15.84
2023-05-10T21:10:55.862Z,15.83
2023-05-10T21:13:26.244Z,15.85
2023-05-10T21:15:57.417Z,15.89
2023-05-10T21:18:30.232Z,15.93
2023-05-10T21:21:06.761Z,15.94
2023-05-10T21:23:37.792Z,15.93
2023-05-10T21:26:13.811Z,15.89
2023-05-10T21:28:47.034Z,15.85
2023-05-10T21:31:18.360Z,15.84
2023-05-10T21:33:49.284Z,15.85
2023-05-10T21:36:24.635Z,15.85
2023-05-10T21:39:04.469Z,15.85
2023-05-10T21:41:38.461Z,15.84
2023-05-10T21:44:11.276Z,15.84
2023-05-10T21:46:43.963Z,15.88
2023-05-10T21:49:16.354Z,15.90
2023-05-10T21:51:48.556Z,15.92
2023-05-10T21:54:19.809Z,15.94
2023-05-10T21:56:50.471Z,15.95
2023-05-10T21:59:22.045Z,15.91
2023-05-10T22:01:54.609Z,15.84
2023-05-10T22:04:25.518Z,15.79
2023-05-10T22:06:56.329Z,15.72
2023-05-10T22:09:28.579Z,15.67
2023-05-10T22:11:59.473Z,15.64
2023-05-10T22:14:30.816Z,15.63
2023-05-10T22:17:01.798Z,15.61
2023-05-10T22:19:32.295Z,15.60
2023-05-10T22:22:03.203Z,15.59
2023-05-10T22:24:33.732Z,15.59
2023-05-10T22:27:06.569Z,15.57
2023-05-10T22:29:40.518Z,15.56
2023-05-10T22:32:15.801Z,15.53
2023-05-10T22:34:46.285Z,15.51
2023-05-10T22:37:17.603Z,15.51
2023-05-10T22:39:48.204Z,15.50
2023-05-10T22:42:18.727Z,15.50
2023-05-10T22:44:48.922Z,15.50
2023-05-10T22:47:19.376Z,15.51
2023-05-10T22:49:49.614Z,15.53
2023-05-10T22:52:19.940Z,15.54
2023-05-10T22:54:50.851Z,15.53
2023-05-10T22:57:21.198Z,15.51
2023-05-10T22:59:52.103Z,15.49
2023-05-10T23:02:23.030Z,15.45
2023-05-10T23:04:54.568Z,15.42
2023-05-10T23:07:25.848Z,15.39
2023-05-10T23:09:56.755Z,15.37
2023-05-10T23:12:27.372Z,15.38
2023-05-10T23:14:57.895Z,15.40
2023-05-10T23:17:28.255Z,15.40
2023-05-10T23:19:59.437Z,15.41
2023-05-10T23:22:30.214Z,15.41
2023-05-10T23:25:01.333Z,15.44
2023-05-10T23:27:35.159Z,15.46
2023-05-10T23:30:07.914Z,15.48
2023-05-10T23:32:39.440Z,15.48
2023-05-10T23:35:12.129Z,15.47
2023-05-10T23:37:43.041Z,15.47
2023-05-10T23:40:15.398Z,15.48
2023-05-10T23:42:46.409Z,15.49
2023-05-10T23:45:16.770Z,15.48
2023-05-10T23:47:47.175Z,15.48
2023-05-10T23:50:18.164Z,15.48
2023-05-10T23:52:48.803Z,15.49
2023-05-10T23:55:19.350Z,15.52
2023-05-10T23:57:49.823Z,15.54
